Time;durP1;ratioP1;P1;durP2;ratioP2;P2;SDS_P1;SDS_P2;PMS_P1;PMS_P2;Temp;Humidity;BMP_temperature;BMP_pressure;BME280_temperature;BME280_humidity;BME280_pressure;Samples;Min_cycle;Max_cycle;Signal;HPM_P1;HPM_P2
2021/12/15 00:00:42;;;;;;;;;;;;;;;8.70;90.19;101176.28;6164359;23;19912;-80
2021/12/15 00:03:07;;;;;;;;;;;;;;;8.72;90.50;101171.72;6189599;23;19957;-79
2021/12/15 00:05:32;;;;;;;;;;;;;;;8.71;90.42;101173.53;6164235;23;19905;-80
2021/12/15 00:07:59;;;;;;;;;;;;;;;8.75;90.48;101166.19;6189491;23;19924;-78
2021/12/15 00:10:24;;;;;;;;;;;;;;;8.75;90.34;101160.84;6164603;23;19913;-80
2021/12/15 00:12:50;;;;;;;;;;;;;;;8.77;90.47;101162.47;6164657;23;19904;-80
2021/12/15 00:15:15;;;;;;;;;;;;;;;8.73;90.17;101158.28;6164295;23;19991;-79
2021/12/15 00:17:41;;;;;;;;;;;;;;;8.75;90.32;101150.19;6189301;23;19932;-79
2021/12/15 00:20:08;;;;;;;;;;;;;;;8.74;90.17;101156.47;6189278;23;19908;-80
2021/12/15 00:22:34;;;;;;;;;;;;;;;8.72;90.18;101161.91;6188971;23;19908;-79
2021/12/15 00:25:02;;;;;;;;;;;;;;;8.68;90.22;101154.19;6164020;23;19947;-78
2021/12/15 00:27:28;;;;;;;;;;;;;;;8.67;90.42;101161.34;6164061;23;19909;-81
2021/12/15 00:29:53;;;;;;;;;;;;;;;8.69;90.45;101158.56;6166317;23;19919;-77
2021/12/15 00:32:18;;;;;;;;;;;;;;;8.69;90.26;101155.91;6164401;23;19909;-80
2021/12/15 00:34:45;;;;;;;;;;;;;;;8.68;90.41;101152.38;6189264;23;19920;-79
2021/12/15 00:37:10;;;;;;;;;;;;;;;8.69;90.37;101153.25;6164436;23;19923;-80
2021/12/15 00:39:35;;;;;;;;;;;;;;;8.70;90.42;101160.28;6188839;23;20323;-80
2021/12/15 00:42:01;;;;;;;;;;;;;;;8.69;90.29;101156.75;6189080;23;19915;-78
2021/12/15 00:44:26;;;;;;;;;;;;;;;8.70;90.17;101163.81;6188830;23;20313;-80
2021/12/15 00:46:52;;;;;;;;;;;;;;;8.69;90.23;101163.91;6189451;23;19909;-80
2021/12/15 00:49:18;;;;;;;;;;;;;;;8.67;90.17;101166.66;6188996;23;19908;-80
2021/12/15 00:51:43;;;;;;;;;;;;;;;8.67;90.33;101160.47;6163074;23;19939;-78
2021/12/15 00:54:09;;;;;;;;;;;;;;;8.67;90.13;101171.16;6163835;23;19916;-79
2021/12/15 00:56:35;;;;;;;;;;;;;;;8.66;90.24;101164.09;6188907;23;19916;-79
2021/12/15 00:59:00;;;;;;;;;;;;;;;8.66;90.13;101167.63;6188733;23;19916;-79
2021/12/15 01:01:26;;;;;;;;;;;;;;;8.68;90.18;101171.03;6163675;23;19908;-79
2021/12/15 01:03:52;;;;;;;;;;;;;;;8.67;90.14;101166.66;6188869;23;19904;-80
2021/12/15 01:06:19;;;;;;;;;;;;;;;8.68;90.38;101163.03;6189300;23;19908;-78
2021/12/15 01:08:47;;;;;;;;;;;;;;;8.68;90.23;101164.84;6188572;23;19911;-78
2021/12/15 01:21:59;;;;;;;;;;;;;;;8.67;90.29;101168.47;6185141;23;19912;-80
2021/12/15 01:24:24;;;;;;;;;;;;;;;8.67;90.65;101163.16;6188940;23;19909;-80
2021/12/15 01:26:50;;;;;;;;;;;;;;;8.68;90.42;101173.72;6188479;23;19977;-80
2021/12/15 01:29:15;;;;;;;;;;;;;;;8.69;90.54;101171.91;6189172;23;19908;-78
2021/12/15 01:31:40;;;;;;;;;;;;;;;8.67;90.64;101168.47;6188448;23;19998;-79
2021/12/15 01:34:06;;;;;;;;;;;;;;;8.67;90.71;101171.16;6188892;23;19908;-79
2021/12/15 01:36:31;;;;;;;;;;;;;;;8.65;90.90;101176.56;6188855;23;19943;-79
2021/12/15 01:38:56;;;;;;;;;;;;;;;8.67;91.05;101182.66;6163895;23;19915;-80
2021/12/15 01:41:23;;;;;;;;;;;;;;;8.66;91.26;101180.94;6188460;23;19948;-80
2021/12/15 01:49:20;;;;;;;;;;;;;;;8.67;91.64;101185.34;6165593;23;19953;-80
2021/12/15 01:51:45;;;;;;;;;;;;;;;8.66;91.88;101182.75;6163526;23;19915;-79
2021/12/15 01:54:11;;;;;;;;;;;;;;;8.66;92.00;101185.44;6188385;23;20630;-78
2021/12/15 01:56:36;;;;;;;;;;;;;;;8.66;92.07;101186.28;6188609;23;19909;-79
2021/12/15 01:59:02;;;;;;;;;;;;;;;8.64;92.02;101184.66;6165330;23;19909;-79
2021/12/15 02:01:29;;;;;;;;;;;;;;;8.64;92.20;101187.34;6162670;23;19928;-78
2021/12/15 02:03:55;;;;;;;;;;;;;;;8.64;92.48;101193.53;6163776;23;19956;-79
2021/12/15 02:06:21;;;;;;;;;;;;;;;8.65;92.24;101184.56;6163317;23;19936;-78
2021/12/15 02:08:47;;;;;;;;;;;;;;;8.65;92.40;101183.72;6190073;23;19906;-79
2021/12/15 02:11:13;;;;;;;;;;;;;;;8.66;92.57;101185.44;6191277;23;19915;-79
2021/12/15 02:13:39;;;;;;;;;;;;;;;8.67;92.38;101181.81;6191764;23;19909;-78
2021/12/15 02:16:05;;;;;;;;;;;;;;;8.64;92.61;101176.66;6191438;23;19916;-78
2021/12/15 02:18:31;;;;;;;;;;;;;;;8.63;92.78;101170.47;6166798;23;19908;-78
2021/12/15 02:20:57;;;;;;;;;;;;;;;8.65;92.72;101173.91;6166269;23;19909;-79
2021/12/15 02:23:31;;;;;;;;;;;;;;;8.63;92.94;101172.28;6191375;23;19928;-80
2021/12/15 02:25:56;;;;;;;;;;;;;;;8.66;93.15;101185.44;6166788;23;19916;-81
2021/12/15 02:28:21;;;;;;;;;;;;;;;8.67;93.03;101185.34;6191839;23;19908;-79
2021/12/15 02:30:55;;;;;;;;;;;;;;;8.67;93.01;101179.16;6191960;23;19928;-80
2021/12/15 02:38:35;;;;;;;;;;;;;;;8.67;92.90;101181.81;6187975;23;20428;-79
2021/12/15 02:41:08;;;;;;;;;;;;;;;8.67;93.26;101181.81;6190973;23;19909;-79
2021/12/15 02:43:33;;;;;;;;;;;;;;;8.67;93.09;101185.34;6168120;23;19909;-79
2021/12/15 02:45:58;;;;;;;;;;;;;;;8.66;93.29;101188.94;6191990;23;19905;-80
2021/12/15 02:48:23;;;;;;;;;;;;;;;8.67;93.15;101184.47;6167968;23;19908;-78
2021/12/15 02:50:49;;;;;;;;;;;;;;;8.62;93.18;101184.75;6191386;23;19904;-79
2021/12/15 02:53:14;;;;;;;;;;;;;;;8.66;93.40;101180.94;6166680;23;20297;-80
2021/12/15 02:55:39;;;;;;;;;;;;;;;8.67;93.52;101187.16;6168107;23;19931;-79
2021/12/15 02:58:05;;;;;;;;;;;;;;;8.66;93.36;101194.28;6166700;23;19908;-79
2021/12/15 03:00:45;;;;;;;;;;;;;;;8.65;93.47;101189.91;6191435;23;19905;-80
2021/12/15 03:06:15;;;;;;;;;;;;;;;8.65;93.60;101192.56;6127616;23;20632;-79
2021/12/15 03:09:01;;;;;;;;;;;;;;;8.64;93.49;101185.53;6188042;23;19916;-79
2021/12/15 03:16:55;;;;;;;;;;;;;;;8.66;93.86;101191.63;6187975;23;19987;-78
2021/12/15 03:19:20;;;;;;;;;;;;;;;8.63;93.67;101189.16;6190738;23;19904;-80
2021/12/15 03:21:46;;;;;;;;;;;;;;;8.64;94.05;101182.00;6164134;23;19916;-80
2021/12/15 03:24:15;;;;;;;;;;;;;;;8.65;93.90;101189.91;6164974;23;19904;-79
2021/12/15 03:26:47;;;;;;;;;;;;;;;8.65;94.00;101186.38;6166404;23;19904;-79
2021/12/15 03:37:24;;;;;;;;;;;;;;;8.66;94.42;101194.28;6187402;23;19905;-79
2021/12/15 03:39:51;;;;;;;;;;;;;;;8.65;94.19;101191.72;6164687;23;20092;-79
2021/12/15 03:42:18;;;;;;;;;;;;;;;8.62;94.31;101194.56;6164803;23;19915;-80
2021/12/15 03:44:44;;;;;;;;;;;;;;;8.59;94.23;101184.97;6164586;23;19932;-81
2021/12/15 03:47:11;;;;;;;;;;;;;;;8.58;94.46;101185.06;6166207;23;19912;-79
2021/12/15 03:49:36;;;;;;;;;;;;;;;8.58;94.68;101185.91;6164832;23;19932;-80
2021/12/15 03:52:03;;;;;;;;;;;;;;;8.59;94.58;101192.09;6189456;23;20029;-79
2021/12/15 03:54:28;;;;;;;;;;;;;;;8.60;94.62;101191.16;6189611;23;20330;-80
2021/12/15 03:56:55;;;;;;;;;;;;;;;8.56;94.78;101189.63;6189677;23;19952;-79
2021/12/15 03:59:20;;;;;;;;;;;;;;;8.59;94.75;101190.28;6189464;23;19975;-80
2021/12/15 04:01:46;;;;;;;;;;;;;;;8.63;94.79;101191.81;6189336;23;19908;-81
2021/12/15 04:04:11;;;;;;;;;;;;;;;8.62;94.70;101191.91;6189557;23;19987;-80
2021/12/15 04:06:37;;;;;;;;;;;;;;;8.62;94.65;101187.44;6164576;23;20359;-80
2021/12/15 04:09:03;;;;;;;;;;;;;;;8.60;94.67;101193.81;6189733;23;19910;-81
2021/12/15 04:11:33;;;;;;;;;;;;;;;8.58;94.65;101196.56;6164403;23;19915;-80
2021/12/15 04:14:00;;;;;;;;;;;;;;;8.62;94.95;101203.44;6164544;23;19909;-80
2021/12/15 04:16:58;;;;;;;;;;;;;;;8.60;94.77;101202.66;6189118;23;19955;-78
2021/12/15 04:19:14;;;;;;;;;;;;;;;8.60;94.74;101212.47;6184613;23;19936;-80
2021/12/15 04:21:39;;;;;;;;;;;;;;;8.61;94.82;101208.84;6189320;23;19908;-79
2021/12/15 04:24:05;;;;;;;;;;;;;;;8.60;94.56;101199.16;6189525;23;19948;-80
2021/12/15 04:26:30;;;;;;;;;;;;;;;8.57;94.70;101205.53;6164479;23;19908;-79
2021/12/15 04:28:55;;;;;;;;;;;;;;;8.57;94.98;101202.00;6164795;23;19904;-78
2021/12/15 04:31:22;;;;;;;;;;;;;;;8.57;94.83;101207.34;6189072;23;19916;-80
2021/12/15 04:33:54;;;;;;;;;;;;;;;8.56;94.78;101200.28;6189485;23;19904;-79
2021/12/15 04:36:19;;;;;;;;;;;;;;;8.57;94.89;101204.66;6164595;23;19950;-80
2021/12/15 04:38:45;;;;;;;;;;;;;;;8.59;94.90;101205.44;6164057;23;19912;-79
2021/12/15 04:41:12;;;;;;;;;;;;;;;8.58;94.78;101212.56;6164072;23;19934;-79
2021/12/15 04:43:40;;;;;;;;;;;;;;;8.58;95.07;101204.56;6164213;23;19919;-80
2021/12/15 04:46:06;;;;;;;;;;;;;;;8.59;95.02;101210.75;6188812;23;19904;-78
2021/12/15 04:48:31;;;;;;;;;;;;;;;8.60;94.76;101216.00;6189029;23;19908;-80
2021/12/15 04:50:57;;;;;;;;;;;;;;;8.61;94.84;101200.84;6189205;23;19994;-80
2021/12/15 04:53:22;;;;;;;;;;;;;;;8.62;94.99;101214.09;6189308;23;19967;-79
2021/12/15 04:55:47;;;;;;;;;;;;;;;8.64;94.87;101209.53;6189255;23;19912;-80
2021/12/15 04:58:12;;;;;;;;;;;;;;;8.62;94.88;101213.25;6188960;23;19920;-80
2021/12/15 05:00:40;;;;;;;;;;;;;;;8.60;95.00;101217.81;6188876;23;19908;-81
2021/12/15 05:03:06;;;;;;;;;;;;;;;8.60;95.00;101224.00;6164131;23;19909;-79
2021/12/15 05:05:33;;;;;;;;;;;;;;;8.60;94.67;101220.47;6164392;23;19915;-80
2021/12/15 05:07:58;;;;;;;;;;;;;;;8.59;94.79;101224.09;6188671;23;19904;-79
2021/12/15 05:10:24;;;;;;;;;;;;;;;8.64;94.92;101222.00;6165579;23;19914;-80
2021/12/15 05:12:49;;;;;;;;;;;;;;;8.62;94.75;101219.44;6189082;23;19931;-80
2021/12/15 05:15:14;;;;;;;;;;;;;;;8.62;94.63;101221.22;6189100;23;19948;-81
2021/12/15 05:17:40;;;;;;;;;;;;;;;8.59;94.82;101216.94;6165178;23;19913;-80
2021/12/15 05:20:06;;;;;;;;;;;;;;;8.57;94.66;101218.00;6164141;23;19909;-79
2021/12/15 05:22:32;;;;;;;;;;;;;;;8.59;94.67;101227.63;6164248;23;19924;-80
2021/12/15 05:24:57;;;;;;;;;;;;;;;8.59;94.49;101224.09;6139372;23;19932;-80
2021/12/15 05:27:22;;;;;;;;;;;;;;;8.59;94.65;101227.63;6164057;23;19935;-80
2021/12/15 05:29:48;;;;;;;;;;;;;;;8.58;94.68;101223.22;6139325;23;19932;-79
2021/12/15 05:32:17;;;;;;;;;;;;;;;8.58;94.76;101225.91;6163877;23;19912;-79
2021/12/15 05:34:42;;;;;;;;;;;;;;;8.55;94.84;101226.09;6139295;23;19948;-79
2021/12/15 05:37:08;;;;;;;;;;;;;;;8.55;95.23;101227.91;6139359;23;19909;-80
2021/12/15 05:39:33;;;;;;;;;;;;;;;8.58;94.67;101230.38;6139126;23;19908;-80
2021/12/15 05:41:58;;;;;;;;;;;;;;;8.55;94.75;101230.56;6163619;23;19908;-80
2021/12/15 05:44:24;;;;;;;;;;;;;;;8.55;94.68;101233.22;6163703;23;20312;-78
2021/12/15 05:46:49;;;;;;;;;;;;;;;8.55;94.59;101233.22;6139203;23;19909;-80
2021/12/15 05:49:15;;;;;;;;;;;;;;;8.52;94.86;101232.47;6164083;23;19912;-78
2021/12/15 05:51:40;;;;;;;;;;;;;;;8.54;94.83;101237.69;6163715;23;19974;-80
2021/12/15 05:54:05;;;;;;;;;;;;;;;8.57;94.83;101239.31;6164016;23;19911;-79
2021/12/15 05:56:31;;;;;;;;;;;;;;;8.60;94.73;101244.47;6138944;23;19909;-79
2021/12/15 05:58:56;;;;;;;;;;;;;;;8.59;95.09;101246.28;6163959;23;19909;-80
2021/12/15 06:01:21;;;;;;;;;;;;;;;8.59;95.05;101245.41;6138615;23;19915;-80
2021/12/15 06:03:47;;;;;;;;;;;;;;;8.58;95.06;101243.72;6163931;23;19908;-79
2021/12/15 06:06:12;;;;;;;;;;;;;;;8.57;95.01;101248.19;6163852;23;19920;-80
2021/12/15 06:08:37;;;;;;;;;;;;;;;8.60;95.11;101245.31;6165132;23;19915;-79
2021/12/15 06:11:03;;;;;;;;;;;;;;;8.63;95.02;101258.47;6138842;23;19908;-81
2021/12/15 06:13:29;;;;;;;;;;;;;;;8.64;95.00;101251.31;6163754;23;19931;-80
2021/12/15 06:15:55;;;;;;;;;;;;;;;8.64;94.89;101262.00;6163579;23;20076;-79
2021/12/15 06:18:20;;;;;;;;;;;;;;;8.64;95.14;101254.00;6188697;23;20420;-80
2021/12/15 06:20:47;;;;;;;;;;;;;;;8.63;95.10;101253.13;6163241;23;19932;-80
2021/12/15 06:23:17;;;;;;;;;;;;;;;8.61;95.09;101259.50;6188536;23;20583;-79
2021/12/15 06:25:43;;;;;;;;;;;;;;;8.60;95.01;101266.66;6165231;23;19963;-80
2021/12/15 06:28:08;;;;;;;;;;;;;;;8.63;95.32;101255.81;6163885;23;20579;-80
2021/12/15 06:30:34;;;;;;;;;;;;;;;8.62;95.23;101258.56;6163340;23;19932;-79
2021/12/15 06:32:59;;;;;;;;;;;;;;;8.63;95.28;101252.28;6163569;23;19904;-81
2021/12/15 06:35:25;;;;;;;;;;;;;;;8.62;95.30;101255.91;6163453;23;19908;-79
2021/12/15 06:37:50;;;;;;;;;;;;;;;8.60;95.35;101255.13;6163646;23;19909;-78
2021/12/15 06:40:15;;;;;;;;;;;;;;;8.59;95.25;101256.09;6163703;23;19904;-80
2021/12/15 06:42:41;;;;;;;;;;;;;;;8.58;95.44;101257.91;6187879;23;20309;-80
2021/12/15 06:45:06;;;;;;;;;;;;;;;8.57;95.27;101258.84;6188076;23;19908;-81
2021/12/15 06:58:35;;;;;;;;;;;;;;;8.58;95.62;101265.03;6166180;23;19955;-82
2021/12/15 07:01:01;;;;;;;;;;;;;;;8.59;95.46;101267.59;6189673;23;19913;-83
2021/12/15 07:03:27;;;;;;;;;;;;;;;8.58;95.54;101270.38;6165147;23;19915;-83
2021/12/15 07:05:52;;;;;;;;;;;;;;;8.60;95.41;101272.00;6165181;23;19904;-83
2021/12/15 07:08:18;;;;;;;;;;;;;;;8.59;95.55;101272.09;6165225;23;19909;-82
2021/12/15 07:10:45;;;;;;;;;;;;;;;8.59;95.49;101272.94;6189880;23;19924;-83
2021/12/15 07:13:10;;;;;;;;;;;;;;;8.62;95.38;101270.09;6164746;23;19916;-82
2021/12/15 07:15:37;;;;;;;;;;;;;;;8.62;95.44;101278.09;6164236;23;19908;-84
2021/12/15 07:18:05;;;;;;;;;;;;;;;8.62;95.58;101283.41;6140297;23;19904;-82
2021/12/15 07:22:56;;;;;;;;;;;;;;;8.62;95.41;101288.75;6164672;23;20307;-83
2021/12/15 07:25:22;;;;;;;;;;;;;;;8.62;95.37;101291.41;6164486;23;19908;-82
2021/12/15 07:27:47;;;;;;;;;;;;;;;8.60;95.24;101295.13;6140482;23;19949;-83
2021/12/15 07:30:12;;;;;;;;;;;;;;;8.61;95.49;101296.84;6165068;23;19905;-83
2021/12/15 07:32:38;;;;;;;;;;;;;;;8.58;95.29;101291.69;6164668;23;19904;-83
2021/12/15 07:35:03;;;;;;;;;;;;;;;8.58;95.43;101287.22;6164290;23;19904;-83
2021/12/15 07:37:29;;;;;;;;;;;;;;;8.58;95.53;101289.03;6139381;23;19909;-82
2021/12/15 07:39:57;;;;;;;;;;;;;;;8.57;95.63;101288.19;6163752;23;19913;-83
2021/12/15 07:42:32;;;;;;;;;;;;;;;8.57;95.72;101288.19;6139538;23;19909;-83
2021/12/15 07:44:57;;;;;;;;;;;;;;;8.58;95.59;101295.22;6164623;23;19915;-83
2021/12/15 07:47:22;;;;;;;;;;;;;;;8.57;95.47;101285.50;6139891;23;19931;-82
2021/12/15 07:49:47;;;;;;;;;;;;;;;8.57;95.74;101289.97;6140058;23;19908;-83
2021/12/15 07:52:13;;;;;;;;;;;;;;;8.56;95.59;101304.25;6139840;23;19914;-83
2021/12/15 07:54:38;;;;;;;;;;;;;;;8.58;95.55;101305.03;6139325;23;19909;-82
2021/12/15 07:57:05;;;;;;;;;;;;;;;8.60;95.52;101303.13;6164070;23;19916;-83
2021/12/15 07:59:30;;;;;;;;;;;;;;;8.63;95.75;101316.28;6166444;23;19904;-82
2021/12/15 08:01:56;;;;;;;;;;;;;;;8.64;95.67;101307.31;6164136;23;19912;-81
2021/12/15 08:04:21;;;;;;;;;;;;;;;8.63;95.43;101311.81;6164808;23;19904;-83
2021/12/15 08:06:46;;;;;;;;;;;;;;;8.62;95.69;101317.22;6139471;23;19969;-82
2021/12/15 08:09:12;;;;;;;;;;;;;;;8.63;95.65;101310.94;6140261;23;19913;-83
2021/12/15 08:11:37;;;;;;;;;;;;;;;8.63;95.59;101314.47;6164321;23;19950;-81
2021/12/15 08:14:02;;;;;;;;;;;;;;;8.65;95.79;101315.22;6139968;23;19905;-83
2021/12/15 08:16:27;;;;;;;;;;;;;;;8.65;95.64;101317.91;6146951;23;19908;-83
2021/12/15 08:18:53;;;;;;;;;;;;;;;8.65;95.46;101315.22;6189544;23;19923;-82
2021/12/15 08:21:18;;;;;;;;;;;;;;;8.67;95.58;101317.81;6164282;23;19904;-82
2021/12/15 08:23:43;;;;;;;;;;;;;;;8.69;95.58;101314.09;6164164;23;19908;-83
2021/12/15 08:26:08;;;;;;;;;;;;;;;8.70;95.49;101325.63;6189442;23;19916;-82
2021/12/15 08:28:34;;;;;;;;;;;;;;;8.67;95.60;101320.47;6189196;23;19932;-82
2021/12/15 08:30:59;;;;;;;;;;;;;;;8.66;95.45;101319.63;6164291;23;19908;-82
2021/12/15 08:33:25;;;;;;;;;;;;;;;8.66;95.47;101332.94;6189263;23;20289;-83
2021/12/15 08:35:58;;;;;;;;;;;;;;;8.69;95.76;101334.56;6164421;23;19908;-83
2021/12/15 08:38:26;;;;;;;;;;;;;;;8.67;95.64;101339.13;6164288;23;19912;-82
2021/12/15 08:40:52;;;;;;;;;;;;;;;8.67;95.69;101344.47;6187135;23;19908;-76
2021/12/15 08:43:18;;;;;;;;;;;;;;;8.67;95.56;101337.31;6187706;23;20309;-83
2021/12/15 08:45:45;;;;;;;;;;;;;;;8.68;95.77;101344.38;6186888;23;20352;-82
2021/12/15 08:48:10;;;;;;;;;;;;;;;8.67;95.54;101342.66;6164077;23;19913;-82
2021/12/15 08:50:37;;;;;;;;;;;;;;;8.66;95.62;101340.09;6163630;23;19962;-83
2021/12/15 08:53:04;;;;;;;;;;;;;;;8.65;95.77;101341.91;6188473;23;20042;-85
2021/12/15 08:55:30;;;;;;;;;;;;;;;8.67;95.73;101337.31;6163114;23;19983;-83
2021/12/15 08:57:58;;;;;;;;;;;;;;;8.68;95.68;101344.38;6188582;23;19935;-83
2021/12/15 09:00:25;;;;;;;;;;;;;;;8.72;95.74;101334.38;6187719;23;19909;-82
2021/12/15 09:02:50;;;;;;;;;;;;;;;8.70;95.82;101333.63;6162287;23;19919;-83
2021/12/15 09:05:21;;;;;;;;;;;;;;;8.70;95.51;101339.81;6188868;23;19908;-83
2021/12/15 09:07:51;;;;;;;;;;;;;;;8.69;95.67;101332.75;6188303;23;19908;-82
2021/12/15 09:10:17;;;;;;;;;;;;;;;8.68;95.50;101335.53;6163717;23;19969;-82
2021/12/15 09:12:42;;;;;;;;;;;;;;;8.68;95.59;101335.53;6164009;23;19904;-83
2021/12/15 09:15:08;;;;;;;;;;;;;;;8.70;95.58;101331.81;6188686;23;19928;-84
2021/12/15 09:17:33;;;;;;;;;;;;;;;8.71;95.84;101335.34;6188418;23;19928;-82
2021/12/15 09:19:58;;;;;;;;;;;;;;;8.73;95.69;101338.75;6163027;23;19908;-83
2021/12/15 09:22:23;;;;;;;;;;;;;;;8.72;95.86;101337.91;6163867;23;19958;-82
2021/12/15 09:24:48;;;;;;;;;;;;;;;8.73;95.71;101341.44;6188680;23;19915;-82
2021/12/15 09:27:14;;;;;;;;;;;;;;;8.76;95.81;101339.44;6189181;23;20338;-81
2021/12/15 09:29:39;;;;;;;;;;;;;;;8.75;95.62;101344.88;6163753;23;19920;-82
2021/12/15 09:32:05;;;;;;;;;;;;;;;8.75;95.79;101343.06;6165201;23;19936;-82
2021/12/15 09:34:30;;;;;;;;;;;;;;;8.78;95.92;101348.22;6188591;23;19956;-81
2021/12/15 09:36:57;;;;;;;;;;;;;;;8.76;95.50;101352.78;6163565;23;19915;-82
2021/12/15 09:39:22;;;;;;;;;;;;;;;8.80;95.66;101342.78;6187898;23;19908;-82
2021/12/15 09:41:48;;;;;;;;;;;;;;;8.78;95.50;101352.69;6163440;23;19908;-83
2021/12/15 09:44:14;;;;;;;;;;;;;;;8.80;95.72;101351.63;6188268;23;19911;-82
2021/12/15 09:47:08;;;;;;;;;;;;;;;8.82;95.67;101356.88;6163736;23;19908;-82
2021/12/15 10:03:15;;;;;;;;;;;;;;;8.84;95.52;101378.97;6184990;23;19920;-83
2021/12/15 10:05:55;;;;;;;;;;;;;;;8.84;95.59;101368.31;6187291;23;20534;-82
2021/12/15 10:11:45;;;;;;;;;;;;;;;8.87;95.48;101372.59;6184755;23;20086;-82
2021/12/15 10:20:03;;;;;;;;;;;;;;;8.82;95.87;101372.88;6185110;23;19935;-83
2021/12/15 10:25:03;;;;;;;;;;;;;;;8.85;95.88;101364.69;6188231;23;19908;-82
2021/12/15 10:27:34;;;;;;;;;;;;;;;8.86;96.08;101366.41;6163675;23;19909;-82
2021/12/15 10:30:22;;;;;;;;;;;;;;;8.86;95.97;101363.75;6164471;23;19915;-81
2021/12/15 10:32:48;;;;;;;;;;;;;;;8.88;96.00;101375.19;6160207;23;20364;-82
2021/12/15 10:35:16;;;;;;;;;;;;;;;8.88;95.97;101369.84;6165303;23;19908;-81
2021/12/15 10:37:42;;;;;;;;;;;;;;;8.89;95.75;101368.91;6190253;23;19909;-82
2021/12/15 10:40:28;;;;;;;;;;;;;;;8.89;95.93;101368.91;6189747;23;19908;-82
2021/12/15 10:43:00;;;;;;;;;;;;;;;8.89;96.13;101370.69;6165212;23;20551;-84
2021/12/15 10:45:25;;;;;;;;;;;;;;;8.89;96.22;101370.69;6190169;23;20321;-83
2021/12/15 10:47:52;;;;;;;;;;;;;;;8.89;96.20;101371.56;6165354;23;19909;-82
2021/12/15 10:50:21;;;;;;;;;;;;;;;8.90;96.19;101369.75;6165207;23;19908;-82
2021/12/15 10:52:54;;;;;;;;;;;;;;;8.92;96.05;101368.72;6190530;23;19909;-81
2021/12/15 10:55:19;;;;;;;;;;;;;;;8.93;96.35;101375.75;6190342;23;19909;-84
2021/12/15 10:57:44;;;;;;;;;;;;;;;8.94;96.25;101364.13;6165456;23;19909;-83
2021/12/15 11:00:14;;;;;;;;;;;;;;;8.93;96.45;101366.91;6190152;23;20267;-82
2021/12/15 11:02:39;;;;;;;;;;;;;;;8.94;96.43;101366.81;6190414;23;19909;-83
2021/12/15 11:05:06;;;;;;;;;;;;;;;8.93;96.42;101365.09;6165005;23;19919;-81
2021/12/15 11:07:31;;;;;;;;;;;;;;;8.96;96.49;101366.72;6165135;23;19915;-83
2021/12/15 11:09:57;;;;;;;;;;;;;;;8.94;96.12;101369.47;6166407;23;20270;-82
2021/12/15 11:12:24;;;;;;;;;;;;;;;8.93;96.47;101369.56;6165109;23;19928;-83
2021/12/15 11:14:51;;;;;;;;;;;;;;;8.92;96.44;101373.19;6190053;23;19915;-82
2021/12/15 11:17:27;;;;;;;;;;;;;;;8.93;96.38;101378.44;6164668;23;19967;-82
2021/12/15 11:19:57;;;;;;;;;;;;;;;8.92;96.36;101366.03;6189575;23;19909;-83
2021/12/15 11:22:52;;;;;;;;;;;;;;;8.92;96.45;101360.72;6165044;23;19904;-82
2021/12/15 11:25:20;;;;;;;;;;;;;;;8.94;96.48;101360.63;6157633;23;19909;-83
2021/12/15 11:27:49;;;;;;;;;;;;;;;8.95;96.28;101362.34;6164029;23;19963;-83
2021/12/15 11:30:19;;;;;;;;;;;;;;;8.95;96.32;101357.84;6189499;23;20312;-81
2021/12/15 11:32:46;;;;;;;;;;;;;;;8.94;96.46;101355.28;6189833;23;20001;-81
2021/12/15 11:35:11;;;;;;;;;;;;;;;8.95;96.37;101363.19;6163821;23;19909;-82
2021/12/15 11:37:43;;;;;;;;;;;;;;;8.97;96.50;101365.75;6165821;23;20264;-81
2021/12/15 11:40:09;;;;;;;;;;;;;;;8.95;96.23;101355.19;6164223;23;19915;-81
2021/12/15 11:42:38;;;;;;;;;;;;;;;8.97;96.22;101350.63;6189379;23;19913;-82
2021/12/15 11:45:05;;;;;;;;;;;;;;;8.97;96.21;101357.75;6164981;23;19911;-81
2021/12/15 11:47:33;;;;;;;;;;;;;;;8.98;96.16;101347.00;6164134;23;19905;-82
2021/12/15 11:50:05;;;;;;;;;;;;;;;8.99;96.17;101350.56;6185019;23;19909;-83
2021/12/15 11:52:36;;;;;;;;;;;;;;;8.98;96.08;101347.00;6161904;23;19915;-84
2021/12/15 11:55:01;;;;;;;;;;;;;;;8.94;96.13;101344.59;6187513;23;19987;-82
2021/12/15 11:57:27;;;;;;;;;;;;;;;8.95;96.46;101346.31;6162444;23;20442;-82
2021/12/15 11:59:59;;;;;;;;;;;;;;;8.97;96.39;101347.09;6186617;23;19908;-84
2021/12/15 12:02:44;;;;;;;;;;;;;;;8.98;96.50;101346.13;6159987;23;19943;-82
2021/12/15 12:05:32;;;;;;;;;;;;;;;8.98;96.37;101349.66;6186175;23;19963;-82
2021/12/15 12:07:59;;;;;;;;;;;;;;;8.99;96.41;101347.88;6158631;23;19924;-82
2021/12/15 12:10:48;;;;;;;;;;;;;;;8.99;96.43;101343.41;6187220;23;19909;-83
2021/12/15 12:13:19;;;;;;;;;;;;;;;9.02;96.47;101345.88;6162693;23;19919;-82
2021/12/15 12:15:46;;;;;;;;;;;;;;;9.03;96.36;101347.59;6185890;23;19913;-82
2021/12/15 12:18:13;;;;;;;;;;;;;;;9.04;96.41;101343.97;6137594;23;19916;-83
2021/12/15 12:20:39;;;;;;;;;;;;;;;9.04;96.31;101335.97;6137753;23;19912;-82
2021/12/15 12:23:05;;;;;;;;;;;;;;;9.04;96.42;101343.13;6162458;23;19948;-83
2021/12/15 12:25:38;;;;;;;;;;;;;;;9.04;96.47;101343.97;6137212;23;19943;-82
2021/12/15 12:28:05;;;;;;;;;;;;;;;9.03;96.30;101341.41;6137131;23;19949;-82
2021/12/15 12:30:32;;;;;;;;;;;;;;;9.03;96.29;101344.94;6136141;23;20519;-83
2021/12/15 12:32:58;;;;;;;;;;;;;;;9.02;96.35;101340.53;6136999;23;19991;-82
2021/12/15 12:35:24;;;;;;;;;;;;;;;9.03;96.45;101336.94;6159291;23;19915;-83
2021/12/15 12:37:54;;;;;;;;;;;;;;;9.04;96.63;101341.31;6161412;23;19904;-82
2021/12/15 12:40:21;;;;;;;;;;;;;;;9.05;96.55;101336.84;6161626;23;19916;-81
2021/12/15 12:42:46;;;;;;;;;;;;;;;9.06;96.40;101335.88;6162155;23;19909;-83
2021/12/15 12:45:14;;;;;;;;;;;;;;;9.05;96.30;101328.81;6137783;23;19908;-82
2021/12/15 12:47:47;;;;;;;;;;;;;;;9.06;96.31;101335.88;6136522;23;19908;-82
2021/12/15 13:01:06;;;;;;;;;;;;;;;9.05;96.65;101334.16;6160245;23;19915;-84
2021/12/15 13:03:35;;;;;;;;;;;;;;;9.06;96.60;101333.22;6161597;23;19915;-83
2021/12/15 13:06:00;;;;;;;;;;;;;;;9.06;96.50;101327.88;6136657;23;20017;-83
2021/12/15 13:08:48;;;;;;;;;;;;;;;9.08;96.57;101333.97;6163218;23;20384;-82
2021/12/15 13:11:18;;;;;;;;;;;;;;;9.07;96.70;101335.78;6161855;23;19908;-83
2021/12/15 13:14:02;;;;;;;;;;;;;;;9.08;96.58;101326.81;6137119;23;19920;-84
2021/12/15 13:16:30;;;;;;;;;;;;;;;9.08;96.74;101334.84;6163051;23;19953;-83
2021/12/15 13:19:04;;;;;;;;;;;;;;;9.08;96.49;101321.50;6137093;23;19931;-82
2021/12/15 13:21:46;;;;;;;;;;;;;;;9.07;96.52;101318.91;6137139;23;20581;-83
2021/12/15 13:28:41;;;;;;;;;;;;;;;9.05;96.71;101320.81;6161483;23;19904;-82
2021/12/15 13:30:05;;;;;;;;;;;;;;;9.07;96.51;101325.13;6162168;23;20266;-83
2021/12/15 13:32:33;;;;;;;;;;;;;;;9.07;96.73;101329.59;6137030;23;20301;-81
2021/12/15 13:34:59;;;;;;;;;;;;;;;9.08;96.59;101315.31;6137194;23;19905;-82
2021/12/15 13:37:43;;;;;;;;;;;;;;;9.08;96.58;101320.63;6136882;23;19948;-83
2021/12/15 13:40:11;;;;;;;;;;;;;;;9.08;96.78;101317.97;6136713;23;19908;-82
2021/12/15 13:42:43;;;;;;;;;;;;;;;9.08;96.77;101326.81;6137276;23;20695;-82
2021/12/15 13:45:25;;;;;;;;;;;;;;;9.09;96.71;101325.88;6137245;23;19931;-83
2021/12/15 13:47:50;;;;;;;;;;;;;;;9.10;96.67;101324.06;6136805;23;19915;-83
2021/12/15 13:50:17;;;;;;;;;;;;;;;9.08;96.65;101321.50;6136494;23;19905;-81
2021/12/15 13:52:43;;;;;;;;;;;;;;;9.09;96.62;101322.34;6136872;23;20716;-81
2021/12/15 13:55:26;;;;;;;;;;;;;;;9.08;96.71;101317.97;6136821;23;19912;-83
2021/12/15 13:58:09;;;;;;;;;;;;;;;9.08;96.77;101316.16;6137382;23;19908;-83
2021/12/15 14:00:44;;;;;;;;;;;;;;;9.09;96.72;101314.34;6136979;23;19919;-82
2021/12/15 14:03:17;;;;;;;;;;;;;;;9.07;96.65;101325.13;6163361;23;19904;-82
2021/12/15 14:05:55;;;;;;;;;;;;;;;9.06;96.73;101323.41;6136261;23;19938;-82
2021/12/15 14:08:26;;;;;;;;;;;;;;;9.06;96.51;101325.22;6136971;23;19928;-81
2021/12/15 14:11:03;;;;;;;;;;;;;;;9.07;96.83;101317.09;6137518;23;19908;-82
2021/12/15 14:13:36;;;;;;;;;;;;;;;9.06;96.82;101318.06;6161448;23;19904;-83
2021/12/15 14:16:02;;;;;;;;;;;;;;;9.07;96.75;101325.13;6138987;23;19909;-82
2021/12/15 14:18:28;;;;;;;;;;;;;;;9.05;96.67;101328.81;6161405;23;20474;-82
2021/12/15 14:21:04;;;;;;;;;;;;;;;9.05;96.65;101332.34;6186562;23;19908;-83